sensor_id;sensor_type;location;lat;lon;timestamp;temperature;humidity
21799;DHT22;24973;47.178;15.316;2022-07-01T00:01:36;20.00;99.90
21799;DHT22;24973;47.178;15.316;2022-07-01T00:04:27;20.00;99.90
21799;DHT22;24973;47.178;15.316;2022-07-01T00:07:16;19.90;99.90
21799;DHT22;24973;47.178;15.316;2022-07-01T00:10:05;19.70;99.90
21799;DHT22;24973;47.178;15.316;2022-07-01T00:12:55;19.60;99.90
21799;DHT22;24973;47.178;15.316;2022-07-01T00:15:44;19.60;99.90
21799;DHT22;24973;47.178;15.316;2022-07-01T00:18:32;19.60;99.90
21799;DHT22;24973;47.178;15.316;2022-07-01T00:21:23;19.60;99.90
21799;DHT22;24973;47.178;15.316;2022-07-01T00:24:11;19.60;99.90
21799;DHT22;24973;47.178;15.316;2022-07-01T00:27:00;19.50;99.90
21799;DHT22;24973;47.178;15.316;2022-07-01T00:29:49;19.50;99.90
21799;DHT22;24973;47.178;15.316;2022-07-01T00:32:38;19.50;99.90
21799;DHT22;24973;47.178;15.316;2022-07-01T00:35:27;19.50;99.90
21799;DHT22;24973;47.178;15.316;2022-07-01T00:38:17;19.60;99.90
21799;DHT22;24973;47.178;15.316;2022-07-01T00:41:06;19.60;99.90
21799;DHT22;24973;47.178;15.316;2022-07-01T00:43:55;19.60;99.90
21799;DHT22;24973;47.178;15.316;2022-07-01T00:46:44;19.60;99.90
21799;DHT22;24973;47.178;15.316;2022-07-01T00:49:35;19.60;99.90
21799;DHT22;24973;47.178;15.316;2022-07-01T00:52:25;19.70;99.90
21799;DHT22;24973;47.178;15.316;2022-07-01T00:55:17;19.60;99.90
21799;DHT22;24973;47.178;15.316;2022-07-01T00:58:07;19.60;99.90
21799;DHT22;24973;47.178;15.316;2022-07-01T01:00:56;19.50;99.90
21799;DHT22;24973;47.178;15.316;2022-07-01T01:03:45;19.40;99.90
21799;DHT22;24973;47.178;15.316;2022-07-01T01:06:34;19.40;99.90
21799;DHT22;24973;47.178;15.316;2022-07-01T01:09:23;19.30;99.90
21799;DHT22;24973;47.178;15.316;2022-07-01T01:12:14;19.30;99.90
21799;DHT22;24973;47.178;15.316;2022-07-01T01:15:04;19.30;99.90
21799;DHT22;24973;47.178;15.316;2022-07-01T01:17:53;19.40;99.90
21799;DHT22;24973;47.178;15.316;2022-07-01T01:20:43;19.30;99.90
21799;DHT22;24973;47.178;15.316;2022-07-01T01:23:32;19.30;99.90
21799;DHT22;24973;47.178;15.316;2022-07-01T01:26:22;19.20;99.90
21799;DHT22;24973;47.178;15.316;2022-07-01T01:29:12;19.20;99.90
21799;DHT22;24973;47.178;15.316;2022-07-01T01:32:01;19.20;99.90
21799;DHT22;24973;47.178;15.316;2022-07-01T01:34:50;19.20;99.90
21799;DHT22;24973;47.178;15.316;2022-07-01T01:37:40;19.10;99.90
21799;DHT22;24973;47.178;15.316;2022-07-01T01:40:29;19.10;99.90
21799;DHT22;24973;47.178;15.316;2022-07-01T01:43:18;19.10;99.90
21799;DHT22;24973;47.178;15.316;2022-07-01T01:46:07;19.10;99.90
21799;DHT22;24973;47.178;15.316;2022-07-01T01:48:56;19.00;99.90
21799;DHT22;24973;47.178;15.316;2022-07-01T01:51:45;18.90;99.90
21799;DHT22;24973;47.178;15.316;2022-07-01T01:54:35;18.90;99.90
21799;DHT22;24973;47.178;15.316;2022-07-01T01:57:24;19.00;99.90
21799;DHT22;24973;47.178;15.316;2022-07-01T02:00:13;19.00;99.90
21799;DHT22;24973;47.178;15.316;2022-07-01T02:03:02;19.00;99.90
21799;DHT22;24973;47.178;15.316;2022-07-01T02:05:51;18.90;99.90
21799;DHT22;24973;47.178;15.316;2022-07-01T02:08:40;18.80;99.90
21799;DHT22;24973;47.178;15.316;2022-07-01T02:11:31;18.90;99.90
21799;DHT22;24973;47.178;15.316;2022-07-01T02:14:20;18.90;99.90
21799;DHT22;24973;47.178;15.316;2022-07-01T02:17:08;18.80;99.90
21799;DHT22;24973;47.178;15.316;2022-07-01T02:19:57;18.80;99.90
21799;DHT22;24973;47.178;15.316;2022-07-01T02:22:46;18.70;99.90
21799;DHT22;24973;47.178;15.316;2022-07-01T02:25:35;18.70;99.90
21799;DHT22;24973;47.178;15.316;2022-07-01T02:28:25;18.70;99.90
21799;DHT22;24973;47.178;15.316;2022-07-01T02:31:14;18.70;99.90
21799;DHT22;24973;47.178;15.316;2022-07-01T02:34:03;18.70;99.90
21799;DHT22;24973;47.178;15.316;2022-07-01T02:36:52;18.70;99.90
21799;DHT22;24973;47.178;15.316;2022-07-01T02:39:42;18.80;99.90
21799;DHT22;24973;47.178;15.316;2022-07-01T02:42:31;18.90;99.90
21799;DHT22;24973;47.178;15.316;2022-07-01T02:45:23;18.90;99.90
21799;DHT22;24973;47.178;15.316;2022-07-01T02:48:12;18.90;99.90
21799;DHT22;24973;47.178;15.316;2022-07-01T02:51:01;18.80;99.90
21799;DHT22;24973;47.178;15.316;2022-07-01T02:53:50;18.70;99.90
21799;DHT22;24973;47.178;15.316;2022-07-01T02:56:39;18.60;99.90
21799;DHT22;24973;47.178;15.316;2022-07-01T02:59:28;18.50;99.90
21799;DHT22;24973;47.178;15.316;2022-07-01T03:02:18;18.50;99.90
21799;DHT22;24973;47.178;15.316;2022-07-01T03:05:08;18.40;99.90
21799;DHT22;24973;47.178;15.316;2022-07-01T03:07:57;18.40;99.90
21799;DHT22;24973;47.178;15.316;2022-07-01T03:10:46;18.30;99.90
21799;DHT22;24973;47.178;15.316;2022-07-01T03:13:35;18.40;99.90
21799;DHT22;24973;47.178;15.316;2022-07-01T03:16:24;18.40;99.90
21799;DHT22;24973;47.178;15.316;2022-07-01T03:19:14;18.40;99.90
21799;DHT22;24973;47.178;15.316;2022-07-01T03:22:03;18.40;99.90
21799;DHT22;24973;47.178;15.316;2022-07-01T03:24:53;18.40;99.90
21799;DHT22;24973;47.178;15.316;2022-07-01T03:27:42;18.50;99.90
21799;DHT22;24973;47.178;15.316;2022-07-01T03:30:35;18.50;99.90
21799;DHT22;24973;47.178;15.316;2022-07-01T03:33:23;18.40;99.90
21799;DHT22;24973;47.178;15.316;2022-07-01T03:36:16;18.50;99.90
21799;DHT22;24973;47.178;15.316;2022-07-01T03:39:04;18.50;99.90
21799;DHT22;24973;47.178;15.316;2022-07-01T03:41:53;18.60;99.90
21799;DHT22;24973;47.178;15.316;2022-07-01T03:44:42;18.60;99.90
21799;DHT22;24973;47.178;15.316;2022-07-01T03:47:32;18.50;99.90
21799;DHT22;24973;47.178;15.316;2022-07-01T03:50:22;18.50;99.90
21799;DHT22;24973;47.178;15.316;2022-07-01T03:53:13;18.50;99.90
21799;DHT22;24973;47.178;15.316;2022-07-01T03:56:20;18.60;99.90
21799;DHT22;24973;47.178;15.316;2022-07-01T03:59:08;18.60;99.90
21799;DHT22;24973;47.178;15.316;2022-07-01T04:01:58;18.60;99.90
21799;DHT22;24973;47.178;15.316;2022-07-01T04:04:47;18.60;99.90
21799;DHT22;24973;47.178;15.316;2022-07-01T04:07:36;18.60;99.90
21799;DHT22;24973;47.178;15.316;2022-07-01T04:10:26;18.50;99.90
21799;DHT22;24973;47.178;15.316;2022-07-01T04:13:15;18.50;99.90
21799;DHT22;24973;47.178;15.316;2022-07-01T04:16:20;18.60;99.90
21799;DHT22;24973;47.178;15.316;2022-07-01T04:19:09;18.70;99.90
21799;DHT22;24973;47.178;15.316;2022-07-01T04:21:57;18.70;99.90
21799;DHT22;24973;47.178;15.316;2022-07-01T04:25:04;18.80;99.90
21799;DHT22;24973;47.178;15.316;2022-07-01T04:27:55;18.90;99.90
21799;DHT22;24973;47.178;15.316;2022-07-01T04:30:44;18.90;99.90
21799;DHT22;24973;47.178;15.316;2022-07-01T04:33:33;18.90;99.90
21799;DHT22;24973;47.178;15.316;2022-07-01T04:36:22;19.00;99.90
21799;DHT22;24973;47.178;15.316;2022-07-01T04:39:11;19.10;99.90
21799;DHT22;24973;47.178;15.316;2022-07-01T04:42:00;19.20;99.90
21799;DHT22;24973;47.178;15.316;2022-07-01T04:44:49;19.40;99.90
21799;DHT22;24973;47.178;15.316;2022-07-01T04:47:38;19.40;99.90
21799;DHT22;24973;47.178;15.316;2022-07-01T04:50:27;19.50;99.90
21799;DHT22;24973;47.178;15.316;2022-07-01T04:53:16;19.60;99.90
21799;DHT22;24973;47.178;15.316;2022-07-01T04:56:04;19.70;99.90
21799;DHT22;24973;47.178;15.316;2022-07-01T04:58:53;19.80;99.90
21799;DHT22;24973;47.178;15.316;2022-07-01T05:01:44;19.80;99.90
21799;DHT22;24973;47.178;15.316;2022-07-01T05:04:36;19.80;99.90
21799;DHT22;24973;47.178;15.316;2022-07-01T05:07:27;19.80;99.90
21799;DHT22;24973;47.178;15.316;2022-07-01T05:10:16;19.90;99.90
21799;DHT22;24973;47.178;15.316;2022-07-01T05:13:05;20.10;99.90
21799;DHT22;24973;47.178;15.316;2022-07-01T05:15:54;20.20;99.90
21799;DHT22;24973;47.178;15.316;2022-07-01T05:18:44;20.30;99.90
21799;DHT22;24973;47.178;15.316;2022-07-01T05:21:50;20.50;99.90
21799;DHT22;24973;47.178;15.316;2022-07-01T05:24:46;20.70;99.90
21799;DHT22;24973;47.178;15.316;2022-07-01T05:27:34;21.00;99.90
21799;DHT22;24973;47.178;15.316;2022-07-01T05:30:23;21.20;99.90
21799;DHT22;24973;47.178;15.316;2022-07-01T05:33:12;21.40;99.90
21799;DHT22;24973;47.178;15.316;2022-07-01T05:36:02;21.60;99.90
21799;DHT22;24973;47.178;15.316;2022-07-01T05:38:51;21.80;99.90
21799;DHT22;24973;47.178;15.316;2022-07-01T05:41:40;22.00;99.90
21799;DHT22;24973;47.178;15.316;2022-07-01T05:44:29;22.20;99.90
21799;DHT22;24973;47.178;15.316;2022-07-01T05:47:18;22.40;99.90
21799;DHT22;24973;47.178;15.316;2022-07-01T05:50:07;22.50;99.90
21799;DHT22;24973;47.178;15.316;2022-07-01T05:52:58;22.50;99.90
21799;DHT22;24973;47.178;15.316;2022-07-01T05:55:47;22.60;99.90
21799;DHT22;24973;47.178;15.316;2022-07-01T05:58:36;22.60;99.90
21799;DHT22;24973;47.178;15.316;2022-07-01T06:01:24;22.70;99.90
21799;DHT22;24973;47.178;15.316;2022-07-01T06:04:13;22.90;99.90
21799;DHT22;24973;47.178;15.316;2022-07-01T06:07:02;23.00;99.90
21799;DHT22;24973;47.178;15.316;2022-07-01T06:09:53;23.20;99.90
21799;DHT22;24973;47.178;15.316;2022-07-01T06:12:43;23.20;99.90
21799;DHT22;24973;47.178;15.316;2022-07-01T06:15:32;23.30;99.90
21799;DHT22;24973;47.178;15.316;2022-07-01T06:18:20;23.50;99.90
21799;DHT22;24973;47.178;15.316;2022-07-01T06:21:09;23.60;99.90
21799;DHT22;24973;47.178;15.316;2022-07-01T06:23:58;23.70;99.90
21799;DHT22;24973;47.178;15.316;2022-07-01T06:26:48;23.80;99.90
21799;DHT22;24973;47.178;15.316;2022-07-01T06:29:37;23.90;99.90
21799;DHT22;24973;47.178;15.316;2022-07-01T06:32:26;24.10;99.90
21799;DHT22;24973;47.178;15.316;2022-07-01T06:35:14;24.10;99.90
21799;DHT22;24973;47.178;15.316;2022-07-01T06:38:03;24.30;99.90
21799;DHT22;24973;47.178;15.316;2022-07-01T06:40:52;24.30;99.90
21799;DHT22;24973;47.178;15.316;2022-07-01T06:44:01;24.30;99.90
21799;DHT22;24973;47.178;15.316;2022-07-01T06:46:52;24.40;99.90
21799;DHT22;24973;47.178;15.316;2022-07-01T06:49:40;24.60;99.90
21799;DHT22;24973;47.178;15.316;2022-07-01T06:52:29;24.80;99.90
21799;DHT22;24973;47.178;15.316;2022-07-01T06:55:18;24.90;99.90
21799;DHT22;24973;47.178;15.316;2022-07-01T06:58:07;25.10;99.90
21799;DHT22;24973;47.178;15.316;2022-07-01T07:00:58;25.20;99.90
21799;DHT22;24973;47.178;15.316;2022-07-01T07:03:47;25.40;99.90
21799;DHT22;24973;47.178;15.316;2022-07-01T07:06:35;25.50;99.90
21799;DHT22;24973;47.178;15.316;2022-07-01T07:09:24;25.60;99.90
21799;DHT22;24973;47.178;15.316;2022-07-01T07:12:13;25.70;99.90
21799;DHT22;24973;47.178;15.316;2022-07-01T07:15:02;25.80;99.90
21799;DHT22;24973;47.178;15.316;2022-07-01T07:17:52;26.00;99.90
21799;DHT22;24973;47.178;15.316;2022-07-01T07:20:44;26.10;99.90
21799;DHT22;24973;47.178;15.316;2022-07-01T07:23:34;26.30;99.90
21799;DHT22;24973;47.178;15.316;2022-07-01T07:26:24;26.50;99.90
21799;DHT22;24973;47.178;15.316;2022-07-01T07:29:13;26.70;99.90
21799;DHT22;24973;47.178;15.316;2022-07-01T07:32:02;26.80;99.90
21799;DHT22;24973;47.178;15.316;2022-07-01T07:34:52;26.90;99.90
21799;DHT22;24973;47.178;15.316;2022-07-01T07:37:42;27.10;99.90
21799;DHT22;24973;47.178;15.316;2022-07-01T07:40:31;27.20;99.90
21799;DHT22;24973;47.178;15.316;2022-07-01T07:43:20;27.20;99.90
21799;DHT22;24973;47.178;15.316;2022-07-01T07:46:09;27.40;99.90
21799;DHT22;24973;47.178;15.316;2022-07-01T07:48:58;27.50;99.90
21799;DHT22;24973;47.178;15.316;2022-07-01T07:51:48;27.60;99.90
21799;DHT22;24973;47.178;15.316;2022-07-01T07:54:37;27.70;99.90
21799;DHT22;24973;47.178;15.316;2022-07-01T07:57:27;27.90;99.90
21799;DHT22;24973;47.178;15.316;2022-07-01T08:00:16;28.00;99.90
21799;DHT22;24973;47.178;15.316;2022-07-01T08:03:05;28.10;99.90
21799;DHT22;24973;47.178;15.316;2022-07-01T08:05:54;28.20;99.90
21799;DHT22;24973;47.178;15.316;2022-07-01T08:08:44;28.40;99.90
21799;DHT22;24973;47.178;15.316;2022-07-01T08:11:33;28.60;99.90
21799;DHT22;24973;47.178;15.316;2022-07-01T08:14:22;28.70;99.90
21799;DHT22;24973;47.178;15.316;2022-07-01T08:17:11;28.90;99.90
21799;DHT22;24973;47.178;15.316;2022-07-01T08:20:00;29.00;99.90
21799;DHT22;24973;47.178;15.316;2022-07-01T08:22:49;29.00;99.90
21799;DHT22;24973;47.178;15.316;2022-07-01T08:25:39;29.20;99.90
21799;DHT22;24973;47.178;15.316;2022-07-01T08:28:28;29.40;99.90
21799;DHT22;24973;47.178;15.316;2022-07-01T08:31:17;29.40;99.90
21799;DHT22;24973;47.178;15.316;2022-07-01T08:34:06;29.50;99.90
21799;DHT22;24973;47.178;15.316;2022-07-01T08:36:56;29.70;99.90
21799;DHT22;24973;47.178;15.316;2022-07-01T08:39:45;29.80;99.90
21799;DHT22;24973;47.178;15.316;2022-07-01T08:42:35;29.90;99.90
21799;DHT22;24973;47.178;15.316;2022-07-01T08:45:26;30.10;99.90
21799;DHT22;24973;47.178;15.316;2022-07-01T08:48:15;30.20;99.90
21799;DHT22;24973;47.178;15.316;2022-07-01T08:51:04;30.40;99.90
21799;DHT22;24973;47.178;15.316;2022-07-01T08:53:54;30.50;99.90
21799;DHT22;24973;47.178;15.316;2022-07-01T08:56:43;30.50;99.90
21799;DHT22;24973;47.178;15.316;2022-07-01T08:59:34;30.60;99.90
21799;DHT22;24973;47.178;15.316;2022-07-01T09:02:23;30.60;97.70
21799;DHT22;24973;47.178;15.316;2022-07-01T09:05:11;30.60;96.90
21799;DHT22;24973;47.178;15.316;2022-07-01T09:08:02;30.60;98.30
21799;DHT22;24973;47.178;15.316;2022-07-01T09:10:51;30.70;97.50
21799;DHT22;24973;47.178;15.316;2022-07-01T09:13:41;30.80;95.10
21799;DHT22;24973;47.178;15.316;2022-07-01T09:16:39;30.90;94.40
21799;DHT22;24973;47.178;15.316;2022-07-01T09:19:31;31.00;93.20
21799;DHT22;24973;47.178;15.316;2022-07-01T09:22:21;31.00;93.70
21799;DHT22;24973;47.178;15.316;2022-07-01T09:25:13;31.10;94.00
21799;DHT22;24973;47.178;15.316;2022-07-01T09:28:04;31.30;90.90
21799;DHT22;24973;47.178;15.316;2022-07-01T09:30:58;31.40;88.80
21799;DHT22;24973;47.178;15.316;2022-07-01T09:34:02;31.50;90.70
21799;DHT22;24973;47.178;15.316;2022-07-01T09:36:53;31.50;84.60
21799;DHT22;24973;47.178;15.316;2022-07-01T09:39:44;31.60;85.30
21799;DHT22;24973;47.178;15.316;2022-07-01T09:42:44;31.80;86.80
21799;DHT22;24973;47.178;15.316;2022-07-01T09:45:34;32.10;86.60
21799;DHT22;24973;47.178;15.316;2022-07-01T09:48:25;32.20;86.40
21799;DHT22;24973;47.178;15.316;2022-07-01T09:51:16;32.20;86.80
21799;DHT22;24973;47.178;15.316;2022-07-01T09:54:05;31.80;85.60
21799;DHT22;24973;47.178;15.316;2022-07-01T09:56:54;31.40;81.50
21799;DHT22;24973;47.178;15.316;2022-07-01T09:59:43;30.90;86.00
21799;DHT22;24973;47.178;15.316;2022-07-01T10:02:33;30.90;86.10
21799;DHT22;24973;47.178;15.316;2022-07-01T10:05:23;31.00;85.80
21799;DHT22;24973;47.178;15.316;2022-07-01T10:08:36;31.30;88.80
21799;DHT22;24973;47.178;15.316;2022-07-01T10:11:58;31.70;87.30
21799;DHT22;24973;47.178;15.316;2022-07-01T10:14:52;32.00;85.00
21799;DHT22;24973;47.178;15.316;2022-07-01T10:17:44;32.20;83.90
21799;DHT22;24973;47.178;15.316;2022-07-01T10:20:33;32.50;85.10
21799;DHT22;24973;47.178;15.316;2022-07-01T10:23:25;32.70;83.40
21799;DHT22;24973;47.178;15.316;2022-07-01T10:26:18;32.70;79.60
21799;DHT22;24973;47.178;15.316;2022-07-01T10:29:26;32.90;80.90
21799;DHT22;24973;47.178;15.316;2022-07-01T10:32:26;33.20;83.80
21799;DHT22;24973;47.178;15.316;2022-07-01T10:35:27;33.40;78.80
21799;DHT22;24973;47.178;15.316;2022-07-01T10:38:15;33.10;74.20
21799;DHT22;24973;47.178;15.316;2022-07-01T10:41:22;33.20;77.20
21799;DHT22;24973;47.178;15.316;2022-07-01T10:44:12;33.30;76.40
21799;DHT22;24973;47.178;15.316;2022-07-01T10:47:05;33.10;73.30
21799;DHT22;24973;47.178;15.316;2022-07-01T10:49:57;33.30;71.60
21799;DHT22;24973;47.178;15.316;2022-07-01T10:53:00;33.40;67.50
21799;DHT22;24973;47.178;15.316;2022-07-01T10:55:51;33.60;71.30
21799;DHT22;24973;47.178;15.316;2022-07-01T10:58:44;33.80;68.20
21799;DHT22;24973;47.178;15.316;2022-07-01T11:01:33;33.80;72.50
21799;DHT22;24973;47.178;15.316;2022-07-01T11:04:22;33.90;71.90
21799;DHT22;24973;47.178;15.316;2022-07-01T11:07:11;34.20;73.70
21799;DHT22;24973;47.178;15.316;2022-07-01T11:10:02;34.50;74.60
21799;DHT22;24973;47.178;15.316;2022-07-01T11:12:53;34.60;70.80
21799;DHT22;24973;47.178;15.316;2022-07-01T11:15:45;34.80;71.10
21799;DHT22;24973;47.178;15.316;2022-07-01T11:18:34;34.90;71.10
21799;DHT22;24973;47.178;15.316;2022-07-01T11:21:24;35.00;71.10
21799;DHT22;24973;47.178;15.316;2022-07-01T11:24:12;35.30;70.30
21799;DHT22;24973;47.178;15.316;2022-07-01T11:27:06;35.60;70.10
21799;DHT22;24973;47.178;15.316;2022-07-01T11:29:56;35.60;69.80
21799;DHT22;24973;47.178;15.316;2022-07-01T11:32:49;35.60;67.80
21799;DHT22;24973;47.178;15.316;2022-07-01T11:35:38;35.70;67.80
21799;DHT22;24973;47.178;15.316;2022-07-01T11:38:45;35.90;71.80
21799;DHT22;24973;47.178;15.316;2022-07-01T11:41:53;35.60;67.70
21799;DHT22;24973;47.178;15.316;2022-07-01T11:44:43;35.60;66.40
21799;DHT22;24973;47.178;15.316;2022-07-01T11:47:33;35.40;66.30
21799;DHT22;24973;47.178;15.316;2022-07-01T11:50:24;35.60;68.10
21799;DHT22;24973;47.178;15.316;2022-07-01T11:53:13;35.60;64.20
21799;DHT22;24973;47.178;15.316;2022-07-01T11:56:03;35.60;66.90
21799;DHT22;24973;47.178;15.316;2022-07-01T11:58:52;35.90;67.30
21799;DHT22;24973;47.178;15.316;2022-07-01T12:01:41;36.00;67.90
21799;DHT22;24973;47.178;15.316;2022-07-01T12:04:31;35.30;61.50
21799;DHT22;24973;47.178;15.316;2022-07-01T12:07:21;35.10;63.10
21799;DHT22;24973;47.178;15.316;2022-07-01T12:10:14;35.30;65.80
21799;DHT22;24973;47.178;15.316;2022-07-01T12:13:21;35.60;65.20
21799;DHT22;24973;47.178;15.316;2022-07-01T12:16:12;35.80;65.80
21799;DHT22;24973;47.178;15.316;2022-07-01T12:19:01;36.10;65.90
21799;DHT22;24973;47.178;15.316;2022-07-01T12:21:52;36.50;65.10
21799;DHT22;24973;47.178;15.316;2022-07-01T12:24:44;36.70;67.90
21799;DHT22;24973;47.178;15.316;2022-07-01T12:27:34;36.40;59.10
21799;DHT22;24973;47.178;15.316;2022-07-01T12:30:25;35.60;57.80
21799;DHT22;24973;47.178;15.316;2022-07-01T12:33:20;35.60;60.70
21799;DHT22;24973;47.178;15.316;2022-07-01T12:36:09;35.70;58.40
21799;DHT22;24973;47.178;15.316;2022-07-01T12:39:02;36.10;60.20
21799;DHT22;24973;47.178;15.316;2022-07-01T12:41:53;36.50;60.40
21799;DHT22;24973;47.178;15.316;2022-07-01T12:44:44;36.90;57.10
21799;DHT22;24973;47.178;15.316;2022-07-01T12:47:35;37.20;57.80
21799;DHT22;24973;47.178;15.316;2022-07-01T12:50:26;37.50;57.90
21799;DHT22;24973;47.178;15.316;2022-07-01T12:53:19;37.70;55.80
21799;DHT22;24973;47.178;15.316;2022-07-01T12:56:20;37.90;56.10
21799;DHT22;24973;47.178;15.316;2022-07-01T12:59:11;38.20;56.40
21799;DHT22;24973;47.178;15.316;2022-07-01T13:33:07;39.30;52.50
21799;DHT22;24973;47.178;15.316;2022-07-01T13:35:56;39.30;52.10
21799;DHT22;24973;47.178;15.316;2022-07-01T13:38:46;39.40;51.50
21799;DHT22;24973;47.178;15.316;2022-07-01T13:41:36;39.50;50.50
21799;DHT22;24973;47.178;15.316;2022-07-01T13:44:24;39.60;52.50
21799;DHT22;24973;47.178;15.316;2022-07-01T13:47:13;39.70;51.80
21799;DHT22;24973;47.178;15.316;2022-07-01T13:50:04;39.70;51.10
21799;DHT22;24973;47.178;15.316;2022-07-01T13:52:54;39.70;51.40
21799;DHT22;24973;47.178;15.316;2022-07-01T13:55:42;39.70;49.60
21799;DHT22;24973;47.178;15.316;2022-07-01T13:58:32;39.80;51.70
21799;DHT22;24973;47.178;15.316;2022-07-01T14:01:21;40.00;51.90
21799;DHT22;24973;47.178;15.316;2022-07-01T14:04:11;40.20;51.10
21799;DHT22;24973;47.178;15.316;2022-07-01T14:07:01;40.30;50.40
21799;DHT22;24973;47.178;15.316;2022-07-01T14:09:50;40.10;50.50
21799;DHT22;24973;47.178;15.316;2022-07-01T14:12:39;40.10;50.30
21799;DHT22;24973;47.178;15.316;2022-07-01T14:15:27;40.20;50.20
21799;DHT22;24973;47.178;15.316;2022-07-01T14:18:16;40.00;50.50
21799;DHT22;24973;47.178;15.316;2022-07-01T14:21:05;39.20;49.00
21799;DHT22;24973;47.178;15.316;2022-07-01T14:23:56;37.60;49.40
21799;DHT22;24973;47.178;15.316;2022-07-01T14:26:45;36.30;50.30
21799;DHT22;24973;47.178;15.316;2022-07-01T14:29:34;36.20;52.10
21799;DHT22;24973;47.178;15.316;2022-07-01T14:32:23;35.80;53.20
21799;DHT22;24973;47.178;15.316;2022-07-01T14:35:14;35.70;52.90
21799;DHT22;24973;47.178;15.316;2022-07-01T14:38:03;36.10;53.80
21799;DHT22;24973;47.178;15.316;2022-07-01T14:40:54;36.30;53.80
21799;DHT22;24973;47.178;15.316;2022-07-01T14:43:43;36.10;54.10
21799;DHT22;24973;47.178;15.316;2022-07-01T14:46:32;36.20;54.20
21799;DHT22;24973;47.178;15.316;2022-07-01T14:49:24;36.60;52.90
21799;DHT22;24973;47.178;15.316;2022-07-01T14:52:12;36.60;53.10
21799;DHT22;24973;47.178;15.316;2022-07-01T14:55:02;36.50;52.50
21799;DHT22;24973;47.178;15.316;2022-07-01T14:57:52;36.30;53.50
21799;DHT22;24973;47.178;15.316;2022-07-01T15:00:40;36.00;53.00
21799;DHT22;24973;47.178;15.316;2022-07-01T15:03:29;35.70;54.30
21799;DHT22;24973;47.178;15.316;2022-07-01T15:06:18;35.20;54.60
21799;DHT22;24973;47.178;15.316;2022-07-01T15:09:07;34.70;55.70
21799;DHT22;24973;47.178;15.316;2022-07-01T15:11:56;33.80;56.90
21799;DHT22;24973;47.178;15.316;2022-07-01T15:14:46;33.70;57.20
21799;DHT22;24973;47.178;15.316;2022-07-01T15:17:41;33.20;57.80
21799;DHT22;24973;47.178;15.316;2022-07-01T15:20:31;32.90;59.50
21799;DHT22;24973;47.178;15.316;2022-07-01T15:23:19;32.70;61.10
21799;DHT22;24973;47.178;15.316;2022-07-01T15:26:08;32.50;62.10
21799;DHT22;24973;47.178;15.316;2022-07-01T15:28:57;32.40;65.50
21799;DHT22;24973;47.178;15.316;2022-07-01T15:31:47;32.20;64.60
21799;DHT22;24973;47.178;15.316;2022-07-01T15:34:37;32.40;65.90
21799;DHT22;24973;47.178;15.316;2022-07-01T15:37:26;32.10;66.20
21799;DHT22;24973;47.178;15.316;2022-07-01T15:40:14;32.10;68.50
21799;DHT22;24973;47.178;15.316;2022-07-01T15:43:03;32.10;70.50
21799;DHT22;24973;47.178;15.316;2022-07-01T15:45:54;32.00;71.10
21799;DHT22;24973;47.178;15.316;2022-07-01T15:48:45;32.00;72.10
21799;DHT22;24973;47.178;15.316;2022-07-01T15:51:34;32.20;73.90
21799;DHT22;24973;47.178;15.316;2022-07-01T15:54:23;32.80;73.70
21799;DHT22;24973;47.178;15.316;2022-07-01T15:57:12;33.50;70.70
21799;DHT22;24973;47.178;15.316;2022-07-01T16:00:00;34.00;67.10
21799;DHT22;24973;47.178;15.316;2022-07-01T16:02:49;34.50;66.70
21799;DHT22;24973;47.178;15.316;2022-07-01T16:05:44;34.80;67.10
21799;DHT22;24973;47.178;15.316;2022-07-01T16:08:34;35.30;67.30
21799;DHT22;24973;47.178;15.316;2022-07-01T16:11:24;35.90;66.20
21799;DHT22;24973;47.178;15.316;2022-07-01T16:14:17;36.60;62.70
21799;DHT22;24973;47.178;15.316;2022-07-01T16:17:09;37.20;61.10
21799;DHT22;24973;47.178;15.316;2022-07-01T16:20:01;37.50;60.40
21799;DHT22;24973;47.178;15.316;2022-07-01T16:22:54;37.30;57.70
21799;DHT22;24973;47.178;15.316;2022-07-01T16:25:45;36.90;57.80
21799;DHT22;24973;47.178;15.316;2022-07-01T16:28:34;36.30;58.70
21799;DHT22;24973;47.178;15.316;2022-07-01T16:31:24;35.80;60.80
21799;DHT22;24973;47.178;15.316;2022-07-01T16:34:13;34.70;62.30
21799;DHT22;24973;47.178;15.316;2022-07-01T16:37:02;34.60;63.70
21799;DHT22;24973;47.178;15.316;2022-07-01T16:40:07;34.10;64.40
21799;DHT22;24973;47.178;15.316;2022-07-01T16:43:00;33.50;66.90
21799;DHT22;24973;47.178;15.316;2022-07-01T16:45:51;32.90;68.80
21799;DHT22;24973;47.178;15.316;2022-07-01T16:48:42;32.40;69.40
21799;DHT22;24973;47.178;15.316;2022-07-01T16:51:41;32.00;70.90
21799;DHT22;24973;47.178;15.316;2022-07-01T16:54:30;31.60;72.10
21799;DHT22;24973;47.178;15.316;2022-07-01T16:57:24;31.30;74.20
21799;DHT22;24973;47.178;15.316;2022-07-01T17:00:16;31.00;75.70
21799;DHT22;24973;47.178;15.316;2022-07-01T17:03:07;30.70;79.10
21799;DHT22;24973;47.178;15.316;2022-07-01T17:05:56;30.30;82.90
21799;DHT22;24973;47.178;15.316;2022-07-01T17:08:45;29.90;84.40
21799;DHT22;24973;47.178;15.316;2022-07-01T17:11:35;29.60;85.40
21799;DHT22;24973;47.178;15.316;2022-07-01T17:14:25;29.50;85.80
21799;DHT22;24973;47.178;15.316;2022-07-01T17:17:15;29.30;86.40
21799;DHT22;24973;47.178;15.316;2022-07-01T17:20:06;29.20;87.20
21799;DHT22;24973;47.178;15.316;2022-07-01T17:23:02;29.10;88.10
21799;DHT22;24973;47.178;15.316;2022-07-01T17:25:56;28.80;83.20
21799;DHT22;24973;47.178;15.316;2022-07-01T17:28:50;28.60;79.20
21799;DHT22;24973;47.178;15.316;2022-07-01T17:31:47;28.50;78.90
21799;DHT22;24973;47.178;15.316;2022-07-01T17:34:43;28.20;79.10
21799;DHT22;24973;47.178;15.316;2022-07-01T17:37:36;27.90;79.30
21799;DHT22;24973;47.178;15.316;2022-07-01T17:40:28;27.60;78.00
21799;DHT22;24973;47.178;15.316;2022-07-01T17:43:20;27.40;78.10
21799;DHT22;24973;47.178;15.316;2022-07-01T17:46:10;27.10;75.60
21799;DHT22;24973;47.178;15.316;2022-07-01T17:49:02;26.90;75.50
21799;DHT22;24973;47.178;15.316;2022-07-01T17:51:51;26.60;97.80
21799;DHT22;24973;47.178;15.316;2022-07-01T17:54:40;26.10;99.90
21799;DHT22;24973;47.178;15.316;2022-07-01T17:57:30;25.90;94.90
21799;DHT22;24973;47.178;15.316;2022-07-01T18:00:21;25.60;84.00
21799;DHT22;24973;47.178;15.316;2022-07-01T18:03:10;25.20;87.20
21799;DHT22;24973;47.178;15.316;2022-07-01T18:06:01;24.80;90.00
21799;DHT22;24973;47.178;15.316;2022-07-01T18:08:50;24.50;90.40
21799;DHT22;24973;47.178;15.316;2022-07-01T18:11:47;24.20;90.80